sensor_id;sensor_type;location;lat;lon;timestamp;P1;durP1;ratioP1;P2;durP2;ratioP2
4742;SDS011;24293;48.154;7.748;2022-11-25T00:01:54;16.13;;;8.70;;
4742;SDS011;24293;48.154;7.748;2022-11-25T00:04:20;18.27;;;7.70;;
4742;SDS011;24293;48.154;7.748;2022-11-25T00:06:49;11.73;;;6.27;;
4742;SDS011;24293;48.154;7.748;2022-11-25T00:09:15;14.97;;;6.80;;
4742;SDS011;24293;48.154;7.748;2022-11-25T00:11:42;12.40;;;6.63;;
4742;SDS011;24293;48.154;7.748;2022-11-25T00:14:09;13.07;;;7.10;;
4742;SDS011;24293;48.154;7.748;2022-11-25T00:16:37;14.00;;;6.60;;
4742;SDS011;24293;48.154;7.748;2022-11-25T00:19:03;14.40;;;6.63;;
4742;SDS011;24293;48.154;7.748;2022-11-25T00:21:31;18.53;;;7.57;;
4742;SDS011;24293;48.154;7.748;2022-11-25T00:24:00;17.90;;;7.53;;
4742;SDS011;24293;48.154;7.748;2022-11-25T00:26:27;10.33;;;7.43;;
4742;SDS011;24293;48.154;7.748;2022-11-25T00:28:56;16.13;;;6.27;;
4742;SDS011;24293;48.154;7.748;2022-11-25T00:31:24;12.17;;;5.80;;
4742;SDS011;24293;48.154;7.748;2022-11-25T00:33:50;16.83;;;6.20;;
4742;SDS011;24293;48.154;7.748;2022-11-25T00:36:18;11.40;;;6.10;;
4742;SDS011;24293;48.154;7.748;2022-11-25T00:38:45;15.00;;;6.13;;
4742;SDS011;24293;48.154;7.748;2022-11-25T00:41:13;13.10;;;7.13;;
4742;SDS011;24293;48.154;7.748;2022-11-25T00:43:57;19.10;;;6.57;;
4742;SDS011;24293;48.154;7.748;2022-11-25T00:46:40;10.97;;;6.80;;
4742;SDS011;24293;48.154;7.748;2022-11-25T00:49:06;14.60;;;6.77;;
4742;SDS011;24293;48.154;7.748;2022-11-25T00:51:33;14.57;;;6.60;;
4742;SDS011;24293;48.154;7.748;2022-11-25T00:54:00;16.40;;;6.10;;
4742;SDS011;24293;48.154;7.748;2022-11-25T00:56:28;15.83;;;6.80;;
4742;SDS011;24293;48.154;7.748;2022-11-25T00:58:54;13.53;;;6.37;;
4742;SDS011;24293;48.154;7.748;2022-11-25T01:01:23;13.17;;;5.87;;
4742;SDS011;24293;48.154;7.748;2022-11-25T01:03:50;14.43;;;6.70;;
4742;SDS011;24293;48.154;7.748;2022-11-25T01:06:17;16.27;;;6.30;;
4742;SDS011;24293;48.154;7.748;2022-11-25T01:08:43;11.33;;;5.17;;
4742;SDS011;24293;48.154;7.748;2022-11-25T01:11:10;10.20;;;5.47;;
4742;SDS011;24293;48.154;7.748;2022-11-25T01:13:39;12.80;;;6.80;;
4742;SDS011;24293;48.154;7.748;2022-11-25T01:16:06;14.63;;;6.53;;
4742;SDS011;24293;48.154;7.748;2022-11-25T01:18:33;12.23;;;6.53;;
4742;SDS011;24293;48.154;7.748;2022-11-25T01:21:04;14.33;;;6.33;;
4742;SDS011;24293;48.154;7.748;2022-11-25T01:23:30;12.30;;;6.57;;
4742;SDS011;24293;48.154;7.748;2022-11-25T01:25:59;16.00;;;6.53;;
4742;SDS011;24293;48.154;7.748;2022-11-25T01:28:26;16.90;;;6.70;;
4742;SDS011;24293;48.154;7.748;2022-11-25T01:30:59;13.83;;;6.23;;
4742;SDS011;24293;48.154;7.748;2022-11-25T01:33:25;18.77;;;6.17;;
4742;SDS011;24293;48.154;7.748;2022-11-25T01:35:52;14.23;;;6.20;;
4742;SDS011;24293;48.154;7.748;2022-11-25T01:38:18;13.23;;;6.30;;
4742;SDS011;24293;48.154;7.748;2022-11-25T01:40:45;11.10;;;6.43;;
4742;SDS011;24293;48.154;7.748;2022-11-25T01:43:11;12.97;;;6.03;;
4742;SDS011;24293;48.154;7.748;2022-11-25T01:45:38;20.57;;;6.70;;
4742;SDS011;24293;48.154;7.748;2022-11-25T01:48:09;14.67;;;6.97;;
4742;SDS011;24293;48.154;7.748;2022-11-25T01:50:36;16.43;;;6.10;;
4742;SDS011;24293;48.154;7.748;2022-11-25T01:53:03;13.40;;;7.67;;
4742;SDS011;24293;48.154;7.748;2022-11-25T01:55:31;11.83;;;6.03;;
4742;SDS011;24293;48.154;7.748;2022-11-25T01:58:00;16.20;;;7.23;;
4742;SDS011;24293;48.154;7.748;2022-11-25T02:00:28;18.57;;;6.20;;
4742;SDS011;24293;48.154;7.748;2022-11-25T02:02:55;14.93;;;7.20;;
4742;SDS011;24293;48.154;7.748;2022-11-25T02:05:25;18.70;;;6.80;;
4742;SDS011;24293;48.154;7.748;2022-11-25T02:07:55;23.83;;;6.47;;
4742;SDS011;24293;48.154;7.748;2022-11-25T02:10:23;16.10;;;5.80;;
4742;SDS011;24293;48.154;7.748;2022-11-25T02:12:50;11.50;;;5.93;;
4742;SDS011;24293;48.154;7.748;2022-11-25T02:15:17;16.33;;;6.30;;
4742;SDS011;24293;48.154;7.748;2022-11-25T02:17:44;11.27;;;7.00;;
4742;SDS011;24293;48.154;7.748;2022-11-25T02:20:12;13.30;;;6.70;;
4742;SDS011;24293;48.154;7.748;2022-11-25T02:22:43;16.10;;;6.93;;
4742;SDS011;24293;48.154;7.748;2022-11-25T02:25:14;15.47;;;7.13;;
4742;SDS011;24293;48.154;7.748;2022-11-25T02:27:42;12.67;;;6.13;;
4742;SDS011;24293;48.154;7.748;2022-11-25T02:30:09;10.97;;;6.87;;
4742;SDS011;24293;48.154;7.748;2022-11-25T02:32:40;19.87;;;6.70;;
4742;SDS011;24293;48.154;7.748;2022-11-25T02:35:19;16.03;;;7.47;;
4742;SDS011;24293;48.154;7.748;2022-11-25T02:37:48;13.17;;;6.37;;
4742;SDS011;24293;48.154;7.748;2022-11-25T02:40:16;17.33;;;8.10;;
4742;SDS011;24293;48.154;7.748;2022-11-25T02:42:43;15.00;;;7.37;;
4742;SDS011;24293;48.154;7.748;2022-11-25T02:45:11;15.07;;;6.43;;
4742;SDS011;24293;48.154;7.748;2022-11-25T02:47:38;16.47;;;6.47;;
4742;SDS011;24293;48.154;7.748;2022-11-25T02:50:06;11.83;;;7.03;;
4742;SDS011;24293;48.154;7.748;2022-11-25T02:52:32;13.27;;;7.60;;
4742;SDS011;24293;48.154;7.748;2022-11-25T02:54:59;13.43;;;7.43;;
4742;SDS011;24293;48.154;7.748;2022-11-25T02:57:26;15.57;;;6.40;;
4742;SDS011;24293;48.154;7.748;2022-11-25T02:59:53;15.03;;;6.20;;
4742;SDS011;24293;48.154;7.748;2022-11-25T03:02:19;19.67;;;6.53;;
4742;SDS011;24293;48.154;7.748;2022-11-25T03:04:46;15.00;;;6.90;;
4742;SDS011;24293;48.154;7.748;2022-11-25T03:07:13;13.20;;;6.13;;
4742;SDS011;24293;48.154;7.748;2022-11-25T03:09:39;9.27;;;5.53;;
4742;SDS011;24293;48.154;7.748;2022-11-25T03:12:07;11.50;;;6.07;;
4742;SDS011;24293;48.154;7.748;2022-11-25T03:14:47;14.40;;;6.10;;
4742;SDS011;24293;48.154;7.748;2022-11-25T03:17:13;8.30;;;5.25;;
4742;SDS011;24293;48.154;7.748;2022-11-25T03:19:40;8.07;;;4.90;;
4742;SDS011;24293;48.154;7.748;2022-11-25T03:22:06;11.27;;;5.37;;
4742;SDS011;24293;48.154;7.748;2022-11-25T03:24:33;15.73;;;4.97;;
4742;SDS011;24293;48.154;7.748;2022-11-25T03:26:59;12.20;;;6.03;;
4742;SDS011;24293;48.154;7.748;2022-11-25T03:29:26;11.10;;;5.17;;
4742;SDS011;24293;48.154;7.748;2022-11-25T03:31:53;13.43;;;5.67;;
4742;SDS011;24293;48.154;7.748;2022-11-25T03:34:20;13.13;;;5.03;;
4742;SDS011;24293;48.154;7.748;2022-11-25T03:36:46;11.90;;;4.77;;
4742;SDS011;24293;48.154;7.748;2022-11-25T03:39:13;8.50;;;4.73;;
4742;SDS011;24293;48.154;7.748;2022-11-25T03:41:40;11.37;;;4.30;;
4742;SDS011;24293;48.154;7.748;2022-11-25T03:44:06;12.80;;;4.43;;
4742;SDS011;24293;48.154;7.748;2022-11-25T03:46:33;12.40;;;4.77;;
4742;SDS011;24293;48.154;7.748;2022-11-25T03:49:01;7.33;;;4.53;;
4742;SDS011;24293;48.154;7.748;2022-11-25T03:51:27;12.20;;;5.47;;
4742;SDS011;24293;48.154;7.748;2022-11-25T03:53:54;8.60;;;4.37;;
4742;SDS011;24293;48.154;7.748;2022-11-25T03:56:20;9.50;;;4.53;;
4742;SDS011;24293;48.154;7.748;2022-11-25T03:58:47;22.23;;;5.03;;
4742;SDS011;24293;48.154;7.748;2022-11-25T04:01:13;9.37;;;4.70;;
4742;SDS011;24293;48.154;7.748;2022-11-25T04:03:42;9.53;;;4.43;;
4742;SDS011;24293;48.154;7.748;2022-11-25T04:06:10;8.93;;;3.60;;
4742;SDS011;24293;48.154;7.748;2022-11-25T04:08:37;9.70;;;4.30;;
4742;SDS011;24293;48.154;7.748;2022-11-25T04:11:03;6.50;;;3.30;;
4742;SDS011;24293;48.154;7.748;2022-11-25T04:13:30;11.63;;;3.37;;
4742;SDS011;24293;48.154;7.748;2022-11-25T04:15:58;9.33;;;3.10;;
4742;SDS011;24293;48.154;7.748;2022-11-25T04:18:24;14.00;;;4.40;;
4742;SDS011;24293;48.154;7.748;2022-11-25T04:20:51;9.90;;;4.57;;
4742;SDS011;24293;48.154;7.748;2022-11-25T04:23:19;9.73;;;4.40;;
4742;SDS011;24293;48.154;7.748;2022-11-25T04:25:47;7.90;;;3.53;;
4742;SDS011;24293;48.154;7.748;2022-11-25T04:28:14;5.37;;;3.30;;
4742;SDS011;24293;48.154;7.748;2022-11-25T04:30:41;7.80;;;3.23;;
4742;SDS011;24293;48.154;7.748;2022-11-25T04:33:08;10.73;;;4.90;;
4742;SDS011;24293;48.154;7.748;2022-11-25T04:35:35;6.20;;;3.97;;
4742;SDS011;24293;48.154;7.748;2022-11-25T04:38:01;12.90;;;5.60;;
4742;SDS011;24293;48.154;7.748;2022-11-25T04:40:29;8.03;;;4.07;;
4742;SDS011;24293;48.154;7.748;2022-11-25T04:42:55;16.33;;;4.53;;
4742;SDS011;24293;48.154;7.748;2022-11-25T04:45:22;7.20;;;3.10;;
4742;SDS011;24293;48.154;7.748;2022-11-25T04:47:48;10.37;;;3.67;;
4742;SDS011;24293;48.154;7.748;2022-11-25T04:50:16;8.47;;;3.60;;
4742;SDS011;24293;48.154;7.748;2022-11-25T04:52:43;11.73;;;3.77;;
4742;SDS011;24293;48.154;7.748;2022-11-25T04:55:09;9.00;;;3.50;;
4742;SDS011;24293;48.154;7.748;2022-11-25T04:57:37;10.07;;;3.83;;
4742;SDS011;24293;48.154;7.748;2022-11-25T05:00:04;8.07;;;3.77;;
4742;SDS011;24293;48.154;7.748;2022-11-25T05:02:30;10.10;;;4.27;;
4742;SDS011;24293;48.154;7.748;2022-11-25T05:04:57;12.10;;;3.77;;
4742;SDS011;24293;48.154;7.748;2022-11-25T05:07:24;8.00;;;3.90;;
4742;SDS011;24293;48.154;7.748;2022-11-25T05:09:51;8.43;;;4.00;;
4742;SDS011;24293;48.154;7.748;2022-11-25T05:12:18;11.73;;;3.83;;
4742;SDS011;24293;48.154;7.748;2022-11-25T05:14:47;8.10;;;3.90;;
4742;SDS011;24293;48.154;7.748;2022-11-25T05:17:14;9.57;;;4.77;;
4742;SDS011;24293;48.154;7.748;2022-11-25T05:19:40;9.93;;;4.43;;
4742;SDS011;24293;48.154;7.748;2022-11-25T05:22:10;8.57;;;3.83;;
4742;SDS011;24293;48.154;7.748;2022-11-25T05:24:36;9.23;;;4.07;;
4742;SDS011;24293;48.154;7.748;2022-11-25T05:27:03;10.30;;;4.37;;
4742;SDS011;24293;48.154;7.748;2022-11-25T05:29:29;13.13;;;4.37;;
4742;SDS011;24293;48.154;7.748;2022-11-25T05:31:57;8.37;;;4.23;;
4742;SDS011;24293;48.154;7.748;2022-11-25T05:34:24;8.97;;;5.27;;
4742;SDS011;24293;48.154;7.748;2022-11-25T05:36:51;18.80;;;5.80;;
4742;SDS011;24293;48.154;7.748;2022-11-25T05:39:17;14.30;;;5.80;;
4742;SDS011;24293;48.154;7.748;2022-11-25T05:41:44;14.07;;;5.90;;
4742;SDS011;24293;48.154;7.748;2022-11-25T05:44:10;11.30;;;6.77;;
4742;SDS011;24293;48.154;7.748;2022-11-25T05:46:37;13.30;;;6.73;;
4742;SDS011;24293;48.154;7.748;2022-11-25T05:49:05;17.60;;;6.40;;
4742;SDS011;24293;48.154;7.748;2022-11-25T05:51:31;10.33;;;6.80;;
4742;SDS011;24293;48.154;7.748;2022-11-25T05:53:58;11.07;;;5.97;;
4742;SDS011;24293;48.154;7.748;2022-11-25T05:56:24;9.37;;;5.70;;
4742;SDS011;24293;48.154;7.748;2022-11-25T05:58:51;31.83;;;11.20;;
4742;SDS011;24293;48.154;7.748;2022-11-25T06:01:19;21.67;;;8.53;;
4742;SDS011;24293;48.154;7.748;2022-11-25T06:03:46;13.13;;;5.63;;
4742;SDS011;24293;48.154;7.748;2022-11-25T06:06:14;12.40;;;5.10;;
4742;SDS011;24293;48.154;7.748;2022-11-25T06:08:40;16.93;;;5.90;;
4742;SDS011;24293;48.154;7.748;2022-11-25T06:11:07;10.73;;;5.47;;
4742;SDS011;24293;48.154;7.748;2022-11-25T06:13:34;8.47;;;4.40;;
4742;SDS011;24293;48.154;7.748;2022-11-25T06:16:05;9.27;;;4.20;;
4742;SDS011;24293;48.154;7.748;2022-11-25T06:18:31;7.63;;;3.43;;
4742;SDS011;24293;48.154;7.748;2022-11-25T06:20:58;12.50;;;5.10;;
4742;SDS011;24293;48.154;7.748;2022-11-25T06:23:26;20.07;;;10.40;;
4742;SDS011;24293;48.154;7.748;2022-11-25T06:25:52;23.90;;;12.13;;
4742;SDS011;24293;48.154;7.748;2022-11-25T06:28:19;9.93;;;4.30;;
4742;SDS011;24293;48.154;7.748;2022-11-25T06:30:45;8.17;;;2.93;;
4742;SDS011;24293;48.154;7.748;2022-11-25T06:33:12;9.87;;;3.10;;
4742;SDS011;24293;48.154;7.748;2022-11-25T06:35:38;6.73;;;2.40;;
4742;SDS011;24293;48.154;7.748;2022-11-25T06:38:04;4.60;;;2.90;;
4742;SDS011;24293;48.154;7.748;2022-11-25T06:40:32;6.93;;;2.70;;
4742;SDS011;24293;48.154;7.748;2022-11-25T06:42:59;7.10;;;2.83;;
4742;SDS011;24293;48.154;7.748;2022-11-25T06:45:25;10.20;;;2.57;;
4742;SDS011;24293;48.154;7.748;2022-11-25T06:47:52;7.80;;;2.53;;
4742;SDS011;24293;48.154;7.748;2022-11-25T06:50:18;5.37;;;2.80;;
4742;SDS011;24293;48.154;7.748;2022-11-25T06:52:45;8.70;;;3.13;;
4742;SDS011;24293;48.154;7.748;2022-11-25T06:55:11;11.90;;;2.80;;
4742;SDS011;24293;48.154;7.748;2022-11-25T06:57:39;10.57;;;2.90;;
4742;SDS011;24293;48.154;7.748;2022-11-25T07:00:06;5.80;;;3.00;;
4742;SDS011;24293;48.154;7.748;2022-11-25T07:02:33;11.17;;;2.97;;
4742;SDS011;24293;48.154;7.748;2022-11-25T07:04:59;5.50;;;2.40;;
4742;SDS011;24293;48.154;7.748;2022-11-25T07:07:25;7.93;;;2.77;;
4742;SDS011;24293;48.154;7.748;2022-11-25T07:09:52;5.30;;;2.00;;
4742;SDS011;24293;48.154;7.748;2022-11-25T07:12:18;7.87;;;3.07;;
4742;SDS011;24293;48.154;7.748;2022-11-25T07:14:47;8.10;;;3.27;;
4742;SDS011;24293;48.154;7.748;2022-11-25T07:17:15;10.27;;;3.20;;
4742;SDS011;24293;48.154;7.748;2022-11-25T07:19:41;8.10;;;4.03;;
4742;SDS011;24293;48.154;7.748;2022-11-25T07:22:09;6.13;;;3.17;;
4742;SDS011;24293;48.154;7.748;2022-11-25T07:24:35;10.00;;;4.20;;
4742;SDS011;24293;48.154;7.748;2022-11-25T07:27:02;11.40;;;4.13;;
4742;SDS011;24293;48.154;7.748;2022-11-25T07:29:30;15.63;;;7.30;;
4742;SDS011;24293;48.154;7.748;2022-11-25T07:31:58;29.30;;;15.43;;
4742;SDS011;24293;48.154;7.748;2022-11-25T07:34:25;19.20;;;9.17;;
4742;SDS011;24293;48.154;7.748;2022-11-25T07:36:51;13.80;;;7.33;;
4742;SDS011;24293;48.154;7.748;2022-11-25T07:39:18;16.67;;;5.80;;
4742;SDS011;24293;48.154;7.748;2022-11-25T07:41:45;11.40;;;4.67;;
4742;SDS011;24293;48.154;7.748;2022-11-25T07:44:14;14.50;;;4.67;;
4742;SDS011;24293;48.154;7.748;2022-11-25T07:46:41;9.23;;;3.57;;
4742;SDS011;24293;48.154;7.748;2022-11-25T07:49:11;8.43;;;3.37;;
4742;SDS011;24293;48.154;7.748;2022-11-25T07:51:38;5.83;;;3.57;;
4742;SDS011;24293;48.154;7.748;2022-11-25T07:54:06;7.17;;;3.40;;
4742;SDS011;24293;48.154;7.748;2022-11-25T07:56:33;11.73;;;3.33;;
4742;SDS011;24293;48.154;7.748;2022-11-25T07:59:00;5.63;;;3.90;;
4742;SDS011;24293;48.154;7.748;2022-11-25T08:01:26;9.57;;;3.73;;
4742;SDS011;24293;48.154;7.748;2022-11-25T08:03:53;11.07;;;3.73;;
4742;SDS011;24293;48.154;7.748;2022-11-25T08:06:22;15.00;;;4.53;;
4742;SDS011;24293;48.154;7.748;2022-11-25T08:08:49;13.23;;;4.10;;
4742;SDS011;24293;48.154;7.748;2022-11-25T08:11:17;12.10;;;4.80;;
4742;SDS011;24293;48.154;7.748;2022-11-25T08:13:44;8.90;;;3.30;;
4742;SDS011;24293;48.154;7.748;2022-11-25T08:16:12;18.33;;;4.90;;
4742;SDS011;24293;48.154;7.748;2022-11-25T08:18:38;9.17;;;4.30;;
4742;SDS011;24293;48.154;7.748;2022-11-25T08:21:06;15.73;;;3.60;;
4742;SDS011;24293;48.154;7.748;2022-11-25T08:23:35;5.73;;;3.33;;
4742;SDS011;24293;48.154;7.748;2022-11-25T08:26:02;10.30;;;3.27;;
4742;SDS011;24293;48.154;7.748;2022-11-25T08:28:28;14.17;;;3.17;;
4742;SDS011;24293;48.154;7.748;2022-11-25T08:31:00;11.87;;;3.10;;
4742;SDS011;24293;48.154;7.748;2022-11-25T08:33:26;8.83;;;2.60;;
4742;SDS011;24293;48.154;7.748;2022-11-25T08:35:53;11.87;;;3.00;;
4742;SDS011;24293;48.154;7.748;2022-11-25T08:38:19;6.50;;;2.63;;
4742;SDS011;24293;48.154;7.748;2022-11-25T08:40:47;7.70;;;2.20;;
4742;SDS011;24293;48.154;7.748;2022-11-25T08:43:14;8.00;;;2.10;;
4742;SDS011;24293;48.154;7.748;2022-11-25T08:45:40;7.70;;;2.30;;
4742;SDS011;24293;48.154;7.748;2022-11-25T08:48:07;4.43;;;2.67;;
4742;SDS011;24293;48.154;7.748;2022-11-25T08:50:33;7.10;;;2.30;;
4742;SDS011;24293;48.154;7.748;2022-11-25T08:53:00;8.80;;;2.93;;
4742;SDS011;24293;48.154;7.748;2022-11-25T08:55:26;7.77;;;2.70;;
4742;SDS011;24293;48.154;7.748;2022-11-25T08:57:54;10.10;;;2.60;;
4742;SDS011;24293;48.154;7.748;2022-11-25T09:00:21;7.50;;;2.47;;
4742;SDS011;24293;48.154;7.748;2022-11-25T09:02:47;5.87;;;2.27;;
4742;SDS011;24293;48.154;7.748;2022-11-25T09:05:15;6.00;;;2.30;;
4742;SDS011;24293;48.154;7.748;2022-11-25T09:07:41;8.17;;;2.13;;
4742;SDS011;24293;48.154;7.748;2022-11-25T09:10:11;5.40;;;2.03;;
4742;SDS011;24293;48.154;7.748;2022-11-25T09:12:38;9.73;;;2.33;;
4742;SDS011;24293;48.154;7.748;2022-11-25T09:15:07;8.20;;;2.20;;
4742;SDS011;24293;48.154;7.748;2022-11-25T09:17:34;6.73;;;1.53;;
4742;SDS011;24293;48.154;7.748;2022-11-25T09:20:01;10.20;;;2.57;;
4742;SDS011;24293;48.154;7.748;2022-11-25T09:22:29;6.20;;;2.03;;
4742;SDS011;24293;48.154;7.748;2022-11-25T09:24:55;6.67;;;2.27;;
4742;SDS011;24293;48.154;7.748;2022-11-25T09:27:22;15.97;;;2.70;;
4742;SDS011;24293;48.154;7.748;2022-11-25T09:29:48;9.07;;;1.90;;
4742;SDS011;24293;48.154;7.748;2022-11-25T09:32:16;12.90;;;2.83;;
4742;SDS011;24293;48.154;7.748;2022-11-25T09:34:43;5.07;;;2.03;;
4742;SDS011;24293;48.154;7.748;2022-11-25T09:37:10;9.00;;;2.00;;
4742;SDS011;24293;48.154;7.748;2022-11-25T09:39:36;4.80;;;1.87;;
4742;SDS011;24293;48.154;7.748;2022-11-25T09:42:06;7.93;;;2.40;;
4742;SDS011;24293;48.154;7.748;2022-11-25T09:44:56;8.43;;;2.50;;
4742;SDS011;24293;48.154;7.748;2022-11-25T09:47:47;5.43;;;2.17;;
4742;SDS011;24293;48.154;7.748;2022-11-25T09:50:16;8.03;;;2.10;;
4742;SDS011;24293;48.154;7.748;2022-11-25T09:52:47;7.17;;;2.10;;
4742;SDS011;24293;48.154;7.748;2022-11-25T09:55:17;6.33;;;2.60;;
4742;SDS011;24293;48.154;7.748;2022-11-25T09:57:49;6.40;;;2.43;;
4742;SDS011;24293;48.154;7.748;2022-11-25T10:00:18;8.53;;;2.80;;
4742;SDS011;24293;48.154;7.748;2022-11-25T10:02:50;8.27;;;2.70;;
4742;SDS011;24293;48.154;7.748;2022-11-25T10:05:20;6.00;;;2.57;;
4742;SDS011;24293;48.154;7.748;2022-11-25T10:07:48;7.73;;;2.20;;
4742;SDS011;24293;48.154;7.748;2022-11-25T10:10:18;6.33;;;2.20;;
4742;SDS011;24293;48.154;7.748;2022-11-25T10:12:47;8.33;;;2.40;;
4742;SDS011;24293;48.154;7.748;2022-11-25T10:15:15;6.70;;;2.70;;
4742;SDS011;24293;48.154;7.748;2022-11-25T10:17:44;10.73;;;3.03;;
4742;SDS011;24293;48.154;7.748;2022-11-25T10:20:16;6.23;;;2.27;;
4742;SDS011;24293;48.154;7.748;2022-11-25T10:22:45;6.63;;;2.30;;
4742;SDS011;24293;48.154;7.748;2022-11-25T10:25:13;6.80;;;2.20;;
4742;SDS011;24293;48.154;7.748;2022-11-25T10:27:40;6.50;;;2.40;;
4742;SDS011;24293;48.154;7.748;2022-11-25T10:30:12;5.60;;;2.30;;
4742;SDS011;24293;48.154;7.748;2022-11-25T10:32:40;6.83;;;2.50;;
4742;SDS011;24293;48.154;7.748;2022-11-25T10:35:11;7.60;;;2.80;;
4742;SDS011;24293;48.154;7.748;2022-11-25T10:37:41;11.57;;;2.33;;
4742;SDS011;24293;48.154;7.748;2022-11-25T10:40:12;4.77;;;2.20;;
4742;SDS011;24293;48.154;7.748;2022-11-25T10:42:39;6.20;;;2.00;;
4742;SDS011;24293;48.154;7.748;2022-11-25T10:45:06;6.23;;;2.00;;
4742;SDS011;24293;48.154;7.748;2022-11-25T10:47:34;7.27;;;2.40;;
4742;SDS011;24293;48.154;7.748;2022-11-25T10:50:12;7.03;;;2.47;;
4742;SDS011;24293;48.154;7.748;2022-11-25T10:52:41;4.97;;;1.97;;
4742;SDS011;24293;48.154;7.748;2022-11-25T10:55:12;4.90;;;1.80;;
4742;SDS011;24293;48.154;7.748;2022-11-25T10:57:39;6.10;;;2.53;;
4742;SDS011;24293;48.154;7.748;2022-11-25T11:00:07;5.60;;;2.00;;
4742;SDS011;24293;48.154;7.748;2022-11-25T11:02:36;5.67;;;2.13;;
4742;SDS011;24293;48.154;7.748;2022-11-25T11:07:41;4.77;;;2.07;;
4742;SDS011;24293;48.154;7.748;2022-11-25T11:10:14;5.13;;;2.60;;
4742;SDS011;24293;48.154;7.748;2022-11-25T11:12:48;6.87;;;2.40;;
4742;SDS011;24293;48.154;7.748;2022-11-25T11:15:17;4.67;;;1.97;;
4742;SDS011;24293;48.154;7.748;2022-11-25T11:17:44;4.50;;;2.30;;
4742;SDS011;24293;48.154;7.748;2022-11-25T11:20:14;6.70;;;2.47;;
4742;SDS011;24293;48.154;7.748;2022-11-25T11:22:45;5.10;;;1.90;;
4742;SDS011;24293;48.154;7.748;2022-11-25T11:25:20;10.17;;;2.20;;
4742;SDS011;24293;48.154;7.748;2022-11-25T11:27:48;7.23;;;2.40;;
4742;SDS011;24293;48.154;7.748;2022-11-25T11:30:15;4.97;;;1.90;;
4742;SDS011;24293;48.154;7.748;2022-11-25T11:32:42;9.13;;;3.10;;
4742;SDS011;24293;48.154;7.748;2022-11-25T11:35:12;5.83;;;2.50;;
4742;SDS011;24293;48.154;7.748;2022-11-25T11:37:42;5.97;;;2.63;;
4742;SDS011;24293;48.154;7.748;2022-11-25T11:40:18;9.13;;;3.20;;
4742;SDS011;24293;48.154;7.748;2022-11-25T11:42:50;8.77;;;2.73;;
4742;SDS011;24293;48.154;7.748;2022-11-25T11:45:26;8.93;;;2.53;;
4742;SDS011;24293;48.154;7.748;2022-11-25T11:47:58;6.10;;;2.83;;
4742;SDS011;24293;48.154;7.748;2022-11-25T11:50:29;4.23;;;2.50;;
4742;SDS011;24293;48.154;7.748;2022-11-25T11:52:57;9.20;;;3.10;;
4742;SDS011;24293;48.154;7.748;2022-11-25T11:55:34;5.30;;;2.90;;
4742;SDS011;24293;48.154;7.748;2022-11-25T11:58:03;10.60;;;4.23;;
4742;SDS011;24293;48.154;7.748;2022-11-25T12:00:32;9.17;;;4.27;;
4742;SDS011;24293;48.154;7.748;2022-11-25T12:03:02;4.50;;;2.97;;
4742;SDS011;24293;48.154;7.748;2022-11-25T12:05:32;4.47;;;2.60;;
4742;SDS011;24293;48.154;7.748;2022-11-25T12:08:01;12.10;;;4.10;;
4742;SDS011;24293;48.154;7.748;2022-11-25T12:10:30;6.97;;;4.10;;
4742;SDS011;24293;48.154;7.748;2022-11-25T12:13:02;9.53;;;6.00;;
4742;SDS011;24293;48.154;7.748;2022-11-25T12:15:34;8.03;;;5.17;;
4742;SDS011;24293;48.154;7.748;2022-11-25T12:18:03;17.80;;;8.73;;
4742;SDS011;24293;48.154;7.748;2022-11-25T12:20:36;14.77;;;8.80;;
4742;SDS011;24293;48.154;7.748;2022-11-25T12:23:05;10.00;;;6.47;;
4742;SDS011;24293;48.154;7.748;2022-11-25T12:25:35;7.00;;;4.10;;
4742;SDS011;24293;48.154;7.748;2022-11-25T12:28:05;6.73;;;5.27;;
4742;SDS011;24293;48.154;7.748;2022-11-25T12:30:35;10.33;;;5.77;;
4742;SDS011;24293;48.154;7.748;2022-11-25T12:33:03;6.47;;;4.63;;
4742;SDS011;24293;48.154;7.748;2022-11-25T12:35:39;10.57;;;4.40;;
4742;SDS011;24293;48.154;7.748;2022-11-25T12:38:12;10.60;;;3.63;;
4742;SDS011;24293;48.154;7.748;2022-11-25T12:40:41;8.87;;;5.73;;
4742;SDS011;24293;48.154;7.748;2022-11-25T12:43:15;14.37;;;6.60;;
4742;SDS011;24293;48.154;7.748;2022-11-25T12:45:43;7.67;;;6.43;;
4742;SDS011;24293;48.154;7.748;2022-11-25T12:48:10;17.37;;;11.43;;
4742;SDS011;24293;48.154;7.748;2022-11-25T12:50:40;11.00;;;7.07;;
4742;SDS011;24293;48.154;7.748;2022-11-25T12:53:12;10.60;;;5.53;;
4742;SDS011;24293;48.154;7.748;2022-11-25T12:55:40;9.10;;;4.80;;
4742;SDS011;24293;48.154;7.748;2022-11-25T12:58:17;6.93;;;3.57;;
4742;SDS011;24293;48.154;7.748;2022-11-25T13:03:38;6.67;;;4.47;;
4742;SDS011;24293;48.154;7.748;2022-11-25T13:06:22;6.93;;;3.63;;
4742;SDS011;24293;48.154;7.748;2022-11-25T13:08:54;8.97;;;3.67;;
4742;SDS011;24293;48.154;7.748;2022-11-25T13:11:29;6.50;;;3.23;;
4742;SDS011;24293;48.154;7.748;2022-11-25T13:14:00;11.03;;;4.70;;
4742;SDS011;24293;48.154;7.748;2022-11-25T13:16:30;8.27;;;3.60;;
4742;SDS011;24293;48.154;7.748;2022-11-25T13:18:57;6.50;;;3.20;;
4742;SDS011;24293;48.154;7.748;2022-11-25T13:21:23;5.40;;;3.03;;
4742;SDS011;24293;48.154;7.748;2022-11-25T13:23:52;5.27;;;3.33;;
4742;SDS011;24293;48.154;7.748;2022-11-25T13:32:03;10.27;;;4.97;;
4742;SDS011;24293;48.154;7.748;2022-11-25T13:34:30;7.80;;;4.40;;
4742;SDS011;24293;48.154;7.748;2022-11-25T13:36:57;8.63;;;4.30;;
4742;SDS011;24293;48.154;7.748;2022-11-25T13:39:28;9.90;;;4.43;;
4742;SDS011;24293;48.154;7.748;2022-11-25T13:41:59;9.40;;;4.00;;
4742;SDS011;24293;48.154;7.748;2022-11-25T13:44:26;11.87;;;4.50;;
4742;SDS011;24293;48.154;7.748;2022-11-25T13:46:56;8.73;;;2.77;;
4742;SDS011;24293;48.154;7.748;2022-11-25T13:49:29;6.93;;;2.60;;
4742;SDS011;24293;48.154;7.748;2022-11-25T13:51:57;6.80;;;2.60;;
4742;SDS011;24293;48.154;7.748;2022-11-25T13:54:25;7.63;;;3.10;;
4742;SDS011;24293;48.154;7.748;2022-11-25T13:59:37;6.00;;;2.33;;
4742;SDS011;24293;48.154;7.748;2022-11-25T14:02:27;7.10;;;3.50;;
4742;SDS011;24293;48.154;7.748;2022-11-25T14:04:56;8.23;;;3.00;;
4742;SDS011;24293;48.154;7.748;2022-11-25T14:07:26;5.97;;;2.80;;
4742;SDS011;24293;48.154;7.748;2022-11-25T14:10:05;6.90;;;2.63;;
4742;SDS011;24293;48.154;7.748;2022-11-25T14:15:31;7.37;;;3.27;;
4742;SDS011;24293;48.154;7.748;2022-11-25T14:18:09;6.43;;;2.77;;
4742;SDS011;24293;48.154;7.748;2022-11-25T14:20:44;5.90;;;2.70;;
4742;SDS011;24293;48.154;7.748;2022-11-25T14:23:22;11.63;;;4.80;;
4742;SDS011;24293;48.154;7.748;2022-11-25T14:25:52;11.03;;;5.33;;
4742;SDS011;24293;48.154;7.748;2022-11-25T14:28:26;13.57;;;4.37;;
4742;SDS011;24293;48.154;7.748;2022-11-25T14:30:55;17.73;;;3.70;;
4742;SDS011;24293;48.154;7.748;2022-11-25T14:33:25;6.00;;;3.43;;
4742;SDS011;24293;48.154;7.748;2022-11-25T14:35:57;11.17;;;4.00;;
4742;SDS011;24293;48.154;7.748;2022-11-25T14:38:27;9.73;;;4.57;;
4742;SDS011;24293;48.154;7.748;2022-11-25T14:40:56;8.70;;;5.00;;
4742;SDS011;24293;48.154;7.748;2022-11-25T14:43:24;21.13;;;9.10;;
4742;SDS011;24293;48.154;7.748;2022-11-25T14:48:32;5.00;;;2.80;;
4742;SDS011;24293;48.154;7.748;2022-11-25T14:51:01;8.73;;;4.03;;
4742;SDS011;24293;48.154;7.748;2022-11-25T14:53:28;12.53;;;4.10;;
4742;SDS011;24293;48.154;7.748;2022-11-25T14:55:55;9.93;;;3.93;;
4742;SDS011;24293;48.154;7.748;2022-11-25T14:58:24;7.33;;;3.20;;
4742;SDS011;24293;48.154;7.748;2022-11-25T15:00:54;13.87;;;6.43;;
4742;SDS011;24293;48.154;7.748;2022-11-25T15:03:24;10.60;;;4.50;;
4742;SDS011;24293;48.154;7.748;2022-11-25T15:05:52;8.00;;;4.50;;
4742;SDS011;24293;48.154;7.748;2022-11-25T15:08:20;8.70;;;4.00;;
4742;SDS011;24293;48.154;7.748;2022-11-25T15:10:49;7.77;;;4.03;;
4742;SDS011;24293;48.154;7.748;2022-11-25T15:13:28;7.00;;;4.00;;
4742;SDS011;24293;48.154;7.748;2022-11-25T15:15:55;7.23;;;3.07;;
4742;SDS011;24293;48.154;7.748;2022-11-25T15:18:23;8.33;;;3.03;;
4742;SDS011;24293;48.154;7.748;2022-11-25T15:20:52;13.23;;;4.03;;
4742;SDS011;24293;48.154;7.748;2022-11-25T15:23:25;4.90;;;3.13;;